createdAt,value
2018-09-19T00:00:08.895Z,75.13
2018-09-19T00:05:11.921Z,14.80
2018-09-19T00:10:14.994Z,17.50
2018-09-19T00:15:18.250Z,13.70
2018-09-19T00:20:21.336Z,12.37
2018-09-19T00:25:24.339Z,12.43
2018-09-19T00:30:27.509Z,13.03
2018-09-19T00:35:30.562Z,11.73
2018-09-19T00:40:33.662Z,11.07
2018-09-19T00:45:36.658Z,25.27
2018-09-19T00:50:39.719Z,60.17
2018-09-19T00:55:42.776Z,17.87
2018-09-19T01:00:45.784Z,28.60
2018-09-19T01:05:48.941Z,49.30
2018-09-19T01:10:52.006Z,13.23
2018-09-19T01:15:55.071Z,15.60
2018-09-19T01:20:58.128Z,19.10
2018-09-19T01:26:01.187Z,23.40
2018-09-19T01:31:04.236Z,13.20
2018-09-19T01:36:08.402Z,12.23
2018-09-19T01:41:11.445Z,19.97
2018-09-19T01:46:14.477Z,11.77
2018-09-19T01:51:17.618Z,11.13
2018-09-19T01:56:20.654Z,10.33
2018-09-19T02:01:23.717Z,14.67
2018-09-19T02:06:26.771Z,11.00
2018-09-19T02:11:29.796Z,10.67
2018-09-19T02:16:32.879Z,10.97
2018-09-19T02:21:35.895Z,9.90
2018-09-19T02:26:38.973Z,9.53
2018-09-19T02:31:42.002Z,13.80
2018-09-19T02:36:45.054Z,9.27
2018-09-19T02:41:49.186Z,9.37
2018-09-19T02:46:52.237Z,12.50
2018-09-19T02:51:59.131Z,9.80
2018-09-19T02:57:02.193Z,8.93
2018-09-19T03:02:05.252Z,13.83
2018-09-19T03:07:08.309Z,11.80
2018-09-19T03:12:11.446Z,11.70
2018-09-19T03:17:14.566Z,12.47
2018-09-19T03:22:17.628Z,67.47
2018-09-19T03:27:20.703Z,52.63
2018-09-19T03:32:23.748Z,14.53
2018-09-19T03:37:26.842Z,11.47
2018-09-19T03:42:29.915Z,10.03
2018-09-19T03:47:33.063Z,14.53
2018-09-19T03:52:36.211Z,10.17
2018-09-19T03:57:39.341Z,9.50
2018-09-19T04:02:42.424Z,10.30
2018-09-19T04:07:45.471Z,13.50
2018-09-19T04:12:48.562Z,12.20
2018-09-19T04:17:51.620Z,10.50
2018-09-19T04:22:54.880Z,10.53
2018-09-19T04:27:57.981Z,10.97
2018-09-19T04:33:01.020Z,10.17
2018-09-19T04:38:04.091Z,11.93
2018-09-19T04:43:07.163Z,13.13
2018-09-19T04:48:10.234Z,22.10
2018-09-19T04:53:13.369Z,18.70
2018-09-19T04:58:16.448Z,13.40
2018-09-19T05:03:19.512Z,13.00
2018-09-19T05:08:22.621Z,11.97
2018-09-19T05:13:25.684Z,12.80
2018-09-19T05:18:28.748Z,12.50
2018-09-19T05:23:31.836Z,47.93
2018-09-19T05:28:34.860Z,12.90
2018-09-19T05:33:37.931Z,15.90
2018-09-19T05:38:41.113Z,13.60
2018-09-19T05:43:44.164Z,13.60
2018-09-19T05:48:47.263Z,16.20
2018-09-19T05:53:50.312Z,14.60
2018-09-19T05:58:53.525Z,14.93
2018-09-19T06:03:56.635Z,15.03
2018-09-19T06:08:59.705Z,13.53
2018-09-19T06:14:02.815Z,12.67
2018-09-19T06:19:06.144Z,12.07
2018-09-19T06:24:09.212Z,12.30
2018-09-19T06:29:12.312Z,11.90
2018-09-19T06:34:15.534Z,11.80
2018-09-19T06:39:18.634Z,10.60
2018-09-19T06:44:21.660Z,12.50
2018-09-19T06:49:24.755Z,11.90
2018-09-19T06:54:27.858Z,8.57
2018-09-19T06:59:30.994Z,9.93
2018-09-19T07:04:34.069Z,9.70
2018-09-19T07:09:37.623Z,9.10
2018-09-19T07:14:40.714Z,24.80
2018-09-19T07:19:43.838Z,11.40
2018-09-19T07:24:46.945Z,8.13
2018-09-19T07:29:50.073Z,46.33
2018-09-19T07:34:53.124Z,8.43
2018-09-19T07:39:56.170Z,11.30
2018-09-19T07:44:59.243Z,6.23
2018-09-19T07:50:02.276Z,6.40
2018-09-19T07:55:05.444Z,7.80
2018-09-19T08:00:08.447Z,7.43
2018-09-19T08:05:11.471Z,6.03
2018-09-19T08:10:14.501Z,6.67
2018-09-19T08:15:17.626Z,6.53
2018-09-19T08:20:20.655Z,6.07
2018-09-19T08:25:23.768Z,5.80
2018-09-19T08:30:26.889Z,37.50
2018-09-19T08:35:30.189Z,13.00
2018-09-19T08:40:33.439Z,21.30
2018-09-19T08:45:36.827Z,6.97
2018-09-19T08:50:39.975Z,10.40
2018-09-19T08:55:43.005Z,6.93
2018-09-19T09:00:46.429Z,6.20
2018-09-19T09:05:49.527Z,6.97
2018-09-19T09:10:52.570Z,7.13
2018-09-19T09:15:55.608Z,6.77
2018-09-19T09:20:58.712Z,7.60
2018-09-19T09:26:01.873Z,7.10
2018-09-19T09:31:05.000Z,7.50
2018-09-19T09:36:08.050Z,6.17
2018-09-19T09:41:11.111Z,6.93
2018-09-19T09:46:14.143Z,12.67
2018-09-19T09:51:17.207Z,5.80
2018-09-19T09:56:20.275Z,6.20
2018-09-19T10:01:23.337Z,6.03
2018-09-19T10:06:26.461Z,9.77
2018-09-19T10:11:29.500Z,8.83
2018-09-19T10:16:33.099Z,6.20
2018-09-19T10:21:36.199Z,5.13
2018-09-19T10:26:39.295Z,5.67
2018-09-19T10:31:42.325Z,5.73
2018-09-19T10:36:45.484Z,6.83
2018-09-19T10:41:48.568Z,7.60
2018-09-19T10:46:51.631Z,19.40
2018-09-19T10:51:54.702Z,6.37
2018-09-19T10:56:57.860Z,6.67
2018-09-19T11:02:06.229Z,7.53
2018-09-19T11:07:16.163Z,22.10
2018-09-19T11:12:19.189Z,8.50
2018-09-19T11:17:22.215Z,6.93
2018-09-19T11:22:25.273Z,7.47
2018-09-19T11:27:28.312Z,8.10
2018-09-19T11:32:31.339Z,8.50
2018-09-19T11:38:58.894Z,5.90
2018-09-19T11:44:01.980Z,5.03
2018-09-19T11:49:05.230Z,5.93
2018-09-19T11:54:08.349Z,6.77
2018-09-19T11:59:11.400Z,6.20
2018-09-19T12:04:14.445Z,6.40
2018-09-19T12:09:17.500Z,4.83
2018-09-19T12:14:22.610Z,4.93
2018-09-19T12:19:25.663Z,5.80
2018-09-19T12:24:28.748Z,5.10
2018-09-19T12:29:31.831Z,4.90
2018-09-19T12:34:35.096Z,5.40
2018-09-19T12:39:38.320Z,4.97
2018-09-19T12:44:42.379Z,4.70
2018-09-19T12:49:45.492Z,5.20
2018-09-19T12:54:48.541Z,5.30
2018-09-19T12:59:51.616Z,5.83
2018-09-19T13:04:54.770Z,5.00
2018-09-19T13:09:57.801Z,5.17
2018-09-19T13:15:00.874Z,4.87
2018-09-19T13:20:04.025Z,4.97
2018-09-19T13:25:07.047Z,6.80
2018-09-19T13:30:10.120Z,5.80
2018-09-19T13:35:14.023Z,5.57
2018-09-19T13:40:32.025Z,4.20
2018-09-19T13:45:35.099Z,5.37
2018-09-19T13:50:43.437Z,4.53
2018-09-19T13:55:46.567Z,4.90
2018-09-19T14:00:50.109Z,5.60
2018-09-19T14:05:53.207Z,6.00
2018-09-19T14:10:56.305Z,6.20
2018-09-19T14:15:59.371Z,6.03
2018-09-19T14:21:02.428Z,6.30
2018-09-19T14:26:05.506Z,4.73
2018-09-19T14:31:09.621Z,5.10
2018-09-19T14:36:12.700Z,5.03
2018-09-19T14:41:16.171Z,4.80
2018-09-19T14:46:19.235Z,5.90
2018-09-19T14:51:22.323Z,6.30
2018-09-19T14:56:25.400Z,6.30
2018-09-19T15:01:30.589Z,6.23
2018-09-19T15:06:33.671Z,6.57
2018-09-19T15:11:36.746Z,6.50
2018-09-19T15:16:39.776Z,7.50
2018-09-19T15:21:43.217Z,7.40
2018-09-19T15:26:46.290Z,6.90
2018-09-19T15:31:49.360Z,8.20
2018-09-19T15:36:52.460Z,7.50
2018-09-19T15:41:55.488Z,7.97
2018-09-19T15:46:58.727Z,8.07
2018-09-19T15:52:01.788Z,7.17
2018-09-19T15:57:04.856Z,7.60
2018-09-19T16:02:07.900Z,9.37
2018-09-19T16:07:10.951Z,8.00
2018-09-19T16:12:13.979Z,8.60
2018-09-19T16:17:17.080Z,7.80
2018-09-19T16:22:20.305Z,8.40
2018-09-19T16:27:23.467Z,8.57
2018-09-19T16:32:26.622Z,8.27
2018-09-19T16:37:29.656Z,7.50
2018-09-19T16:42:32.709Z,8.23
2018-09-19T16:47:35.844Z,8.20
2018-09-19T16:52:38.880Z,13.70
2018-09-19T16:57:41.904Z,9.47
2018-09-19T17:02:45.115Z,25.40
2018-09-19T17:07:48.254Z,40.50
2018-09-19T17:12:51.285Z,44.87
2018-09-19T17:17:55.001Z,40.73
2018-09-19T17:22:59.229Z,127.10
2018-09-19T17:28:02.331Z,54.40
2018-09-19T17:33:05.394Z,52.50
2018-09-19T17:38:08.469Z,37.57
2018-09-19T17:43:11.860Z,20.27
2018-09-19T17:48:14.965Z,21.33
2018-09-19T17:53:17.996Z,13.60
2018-09-19T17:58:21.061Z,13.53
2018-09-19T18:03:24.081Z,11.73
2018-09-19T18:08:27.195Z,14.00
2018-09-19T18:13:30.308Z,11.40
2018-09-19T18:18:33.459Z,11.60
2018-09-19T18:23:36.538Z,12.57
2018-09-19T18:28:39.599Z,12.27
2018-09-19T18:33:42.657Z,11.17
2018-09-19T18:38:45.883Z,11.80
2018-09-19T18:43:49.016Z,11.77
2018-09-19T18:48:52.217Z,11.80
2018-09-19T18:53:55.360Z,11.50
2018-09-19T18:58:58.522Z,11.30
2018-09-19T19:04:01.659Z,11.80
2018-09-19T19:09:06.974Z,11.97
2018-09-19T19:14:10.180Z,11.63
2018-09-19T19:19:13.257Z,11.30
2018-09-19T19:24:16.289Z,11.57
2018-09-19T19:29:19.644Z,10.70
2018-09-19T19:34:22.886Z,10.60
2018-09-19T19:39:25.984Z,11.47
2018-09-19T19:44:29.091Z,13.33
2018-09-19T19:49:32.246Z,13.60
2018-09-19T19:54:40.140Z,11.70
2018-09-19T19:59:43.244Z,11.10
2018-09-19T20:04:46.794Z,12.10
2018-09-19T20:09:49.991Z,11.27
2018-09-19T20:14:53.110Z,10.23
2018-09-19T20:19:56.208Z,10.17
2018-09-19T20:24:59.821Z,14.60
2018-09-19T20:30:04.324Z,13.50
2018-09-19T20:35:08.184Z,10.83
2018-09-19T20:40:11.313Z,10.33
2018-09-19T20:45:14.523Z,10.23
2018-09-19T20:50:17.568Z,14.30
2018-09-19T20:55:20.869Z,23.63
2018-09-19T21:00:24.002Z,16.90
2018-09-19T21:05:27.192Z,9.53
2018-09-19T21:10:30.200Z,14.60
2018-09-19T21:15:33.356Z,11.93
2018-09-19T21:20:37.256Z,10.67
2018-09-19T21:25:40.319Z,43.23
2018-09-19T21:30:43.438Z,23.97
2018-09-19T21:35:46.527Z,17.40
2018-09-19T21:40:49.621Z,18.80
2018-09-19T21:45:52.659Z,11.00
2018-09-19T21:50:55.712Z,15.70
2018-09-19T21:55:58.875Z,17.00
2018-09-19T22:01:10.680Z,31.80
2018-09-19T22:06:13.686Z,16.23
2018-09-19T22:11:16.744Z,67.47
2018-09-19T22:16:19.787Z,69.90
2018-09-19T22:21:23.007Z,64.70
2018-09-19T22:26:26.112Z,11.07
2018-09-19T22:31:29.260Z,42.60
2018-09-19T22:36:32.279Z,14.03
2018-09-19T22:41:35.632Z,29.87
2018-09-19T22:46:39.137Z,18.03
2018-09-19T22:51:42.379Z,36.40
2018-09-19T22:56:45.597Z,46.63
2018-09-19T23:01:48.720Z,23.00
2018-09-19T23:06:51.823Z,11.23
2018-09-19T23:11:54.921Z,48.80
2018-09-19T23:16:57.975Z,15.30
2018-09-19T23:22:01.103Z,15.70
2018-09-19T23:27:04.136Z,16.30
2018-09-19T23:32:07.202Z,36.83
2018-09-19T23:37:10.293Z,29.47
2018-09-19T23:42:13.320Z,23.13
2018-09-19T23:47:16.417Z,29.30
2018-09-19T23:52:19.565Z,77.07
2018-09-19T23:57:22.843Z,115.50
